59°F Temp
55°F Dewpoint
88% Humidity
Temperature
3 MPH
5 KM/H
3 KTS
350°
Due North

Wind Speed
Foggy
Conditions
Pressure 1017.27 (hPa) - 30.04 (in)
Visibility 10.0 (mi) - 16.1 (km)

Current Conditions
KPAE
Location 8(mi)
Metar :KPAE 161353Z 35003KT 10SM R16R/1400VP6000FT VCFG CLR 15/13 A3004 RMK AO2 SLP171 T01500133
Tue 16th July 06:53 am

Airport
  Metar Aviation API Data Provided by https://www.checkwx.com/ PHP scripts by weather34.com ©2024